createdAt,value
2018-08-17T00:01:54.220Z,58.31
2018-08-17T00:04:24.906Z,58.80
2018-08-17T00:06:55.777Z,59.17
2018-08-17T00:09:27.389Z,59.14
2018-08-17T00:11:58.360Z,58.74
2018-08-17T00:14:29.099Z,59.37
2018-08-17T00:16:58.957Z,59.27
2018-08-17T00:19:29.934Z,59.55
2018-08-17T00:22:00.753Z,59.49
2018-08-17T00:24:32.137Z,59.81
2018-08-17T00:27:03.048Z,59.76
2018-08-17T00:29:34.285Z,59.62
2018-08-17T00:32:04.363Z,59.83
2018-08-17T00:34:35.044Z,60.25
2018-08-17T00:37:05.896Z,60.39
2018-08-17T00:39:36.754Z,60.99
2018-08-17T00:42:08.268Z,61.35
2018-08-17T00:44:38.976Z,61.04
2018-08-17T00:47:10.176Z,61.15
2018-08-17T00:49:40.923Z,61.20
2018-08-17T00:52:11.829Z,61.29
2018-08-17T00:54:43.065Z,61.04
2018-08-17T00:57:14.071Z,60.96
2018-08-17T00:59:44.835Z,61.44
2018-08-17T01:02:15.757Z,61.60
2018-08-17T01:04:47.025Z,61.32
2018-08-17T01:07:18.010Z,62.00
2018-08-17T01:09:48.916Z,61.68
2018-08-17T01:12:19.906Z,61.84
2018-08-17T01:14:50.907Z,61.98
2018-08-17T01:17:22.008Z,62.52
2018-08-17T01:19:56.297Z,62.23
2018-08-17T01:22:26.165Z,62.52
2018-08-17T01:24:56.062Z,62.42
2018-08-17T01:27:25.913Z,62.32
2018-08-17T01:29:56.772Z,62.82
2018-08-17T01:32:28.554Z,62.98
2018-08-17T01:34:59.265Z,62.77
2018-08-17T01:37:29.941Z,63.24
2018-08-17T01:40:00.800Z,63.17
2018-08-17T01:42:31.685Z,63.00
2018-08-17T01:45:03.181Z,63.18
2018-08-17T01:47:35.025Z,63.81
2018-08-17T01:50:05.092Z,63.68
2018-08-17T01:52:35.886Z,63.83
2018-08-17T01:55:08.822Z,63.72
2018-08-17T01:57:38.660Z,63.75
2018-08-17T02:00:11.695Z,63.77
2018-08-17T02:02:42.675Z,64.04
2018-08-17T02:05:12.840Z,64.34
2018-08-17T02:07:42.633Z,64.16
2018-08-17T02:10:13.673Z,64.34
2018-08-17T02:12:44.024Z,64.72
2018-08-17T02:15:14.962Z,64.49
2018-08-17T02:17:45.781Z,64.48
2018-08-17T02:20:16.993Z,64.66
2018-08-17T02:22:52.124Z,64.68
2018-08-17T02:25:22.210Z,64.99
2018-08-17T02:27:52.068Z,65.15
2018-08-17T02:30:21.858Z,65.20
2018-08-17T02:32:51.780Z,65.38
2018-08-17T02:35:23.045Z,65.41
2018-08-17T02:37:54.037Z,65.25
2018-08-17T02:40:25.133Z,65.57
2018-08-17T02:42:56.139Z,65.88
2018-08-17T02:45:26.964Z,65.91
2018-08-17T02:47:57.892Z,65.83
2018-08-17T02:50:28.757Z,66.03
2018-08-17T02:52:59.755Z,66.13
2018-08-17T02:55:31.275Z,66.59
2018-08-17T02:58:02.064Z,66.70
2018-08-17T03:00:32.934Z,66.75
2018-08-17T03:03:04.036Z,66.91
2018-08-17T03:05:34.893Z,66.80
2018-08-17T03:08:05.886Z,67.04
2018-08-17T03:10:36.766Z,66.95
2018-08-17T03:13:08.506Z,67.02
2018-08-17T03:15:39.045Z,67.00
2018-08-17T03:18:10.939Z,67.63
2018-08-17T03:20:42.373Z,67.72
2018-08-17T03:23:12.751Z,67.46
2018-08-17T03:25:43.290Z,67.59
2018-08-17T03:28:14.037Z,67.65
2018-08-17T03:30:44.861Z,67.80
2018-08-17T03:33:15.872Z,68.35
2018-08-17T03:35:46.814Z,68.96
2018-08-17T03:38:17.781Z,69.31
2018-08-17T03:40:49.050Z,69.61
2018-08-17T03:43:19.897Z,70.60
2018-08-17T03:45:50.703Z,69.88
2018-08-17T03:48:22.160Z,69.50
2018-08-17T03:50:52.956Z,69.67
2018-08-17T03:53:23.865Z,70.59
2018-08-17T03:55:54.684Z,69.44
2018-08-17T03:58:26.160Z,69.80
2018-08-17T04:00:57.144Z,69.75
2018-08-17T04:03:27.992Z,70.11
2018-08-17T04:05:58.849Z,70.00
2018-08-17T04:08:29.844Z,70.33
2018-08-17T04:11:01.088Z,70.17
2018-08-17T04:13:32.038Z,70.38
2018-08-17T04:16:02.881Z,69.95
2018-08-17T04:18:34.159Z,71.75
2018-08-17T04:21:04.986Z,70.91
2018-08-17T04:23:35.995Z,70.84
2018-08-17T04:26:06.906Z,70.15
2018-08-17T04:28:37.820Z,70.19
2018-08-17T04:31:08.745Z,70.04
2018-08-17T04:33:40.141Z,69.97
2018-08-17T04:36:11.006Z,70.14
2018-08-17T04:38:41.917Z,70.00
2018-08-17T04:41:12.863Z,69.99
2018-08-17T04:43:43.847Z,69.60
2018-08-17T04:46:15.625Z,69.45
2018-08-17T04:48:46.251Z,69.60
2018-08-17T04:51:17.048Z,69.56
2018-08-17T04:53:47.960Z,69.32
2018-08-17T04:56:18.777Z,69.67
2018-08-17T04:58:49.769Z,70.14
2018-08-17T05:01:21.225Z,70.62
2018-08-17T05:03:52.198Z,71.67
2018-08-17T05:06:22.921Z,72.50
2018-08-17T05:08:53.839Z,74.37
2018-08-17T05:11:24.811Z,73.37
2018-08-17T05:13:56.088Z,73.24
2018-08-17T05:16:27.131Z,74.16
2018-08-17T05:18:57.945Z,75.16
2018-08-17T05:21:28.750Z,73.87
2018-08-17T05:24:00.109Z,73.89
2018-08-17T05:26:30.850Z,76.65
2018-08-17T05:29:01.821Z,75.37
2018-08-17T05:31:33.057Z,75.18
2018-08-17T05:34:04.103Z,75.40
2018-08-17T05:36:35.054Z,75.20
2018-08-17T05:39:06.998Z,75.04
2018-08-17T05:41:36.756Z,74.99
2018-08-17T05:44:08.181Z,75.38
2018-08-17T05:46:39.122Z,75.26
2018-08-17T05:49:10.165Z,74.76
2018-08-17T05:51:40.930Z,75.72
2018-08-17T05:54:11.824Z,74.74
2018-08-17T05:56:43.119Z,74.45
2018-08-17T05:59:14.012Z,75.23
2018-08-17T06:01:51.396Z,75.14
2018-08-17T06:04:21.961Z,74.78
2018-08-17T06:06:51.736Z,73.57
2018-08-17T06:09:21.541Z,73.49
2018-08-17T06:11:51.526Z,73.81
2018-08-17T06:14:21.389Z,73.26
2018-08-17T06:16:51.406Z,73.91
2018-08-17T06:19:22.632Z,73.12
2018-08-17T06:21:53.217Z,72.93
2018-08-17T06:24:24.010Z,73.50
2018-08-17T06:26:54.925Z,73.22
2018-08-17T06:29:25.849Z,71.98
2018-08-17T06:31:57.454Z,71.92
2018-08-17T06:34:27.999Z,71.81
2018-08-17T06:36:59.041Z,71.60
2018-08-17T06:39:29.863Z,71.41
2018-08-17T06:42:01.181Z,71.05
2018-08-17T06:44:31.974Z,70.46
2018-08-17T06:47:02.918Z,70.78
2018-08-17T06:49:34.053Z,69.88
2018-08-17T06:52:05.364Z,69.95
2018-08-17T06:54:35.897Z,69.27
2018-08-17T06:57:07.026Z,69.51
2018-08-17T06:59:37.827Z,69.09
2018-08-17T07:02:08.992Z,68.17
2018-08-17T07:04:39.921Z,67.99
2018-08-17T07:07:10.810Z,67.34
2018-08-17T07:09:42.046Z,66.80
2018-08-17T07:12:13.093Z,66.79
2018-08-17T07:14:43.848Z,66.43
2018-08-17T07:17:14.938Z,66.01
2018-08-17T07:19:45.713Z,65.26
2018-08-17T07:22:17.209Z,65.08
2018-08-17T07:24:48.000Z,64.96
2018-08-17T07:27:19.034Z,64.93
2018-08-17T07:29:49.938Z,64.74
2018-08-17T07:32:20.875Z,64.20
2018-08-17T07:34:51.832Z,63.56
2018-08-17T07:37:21.769Z,63.62
2018-08-17T07:39:53.029Z,63.19
2018-08-17T07:42:24.235Z,63.58
2018-08-17T07:44:55.111Z,62.93
2018-08-17T07:47:26.075Z,62.38
2018-08-17T07:49:57.009Z,61.62
2018-08-17T07:52:27.987Z,61.88
2018-08-17T07:54:58.873Z,60.30
2018-08-17T07:57:29.826Z,60.42
2018-08-17T08:00:01.066Z,60.17
2018-08-17T08:02:32.153Z,59.55
2018-08-17T08:05:03.081Z,59.22
2018-08-17T08:07:34.022Z,58.57
2018-08-17T08:10:05.040Z,58.54
2018-08-17T08:12:36.050Z,57.23
2018-08-17T08:15:07.539Z,56.50
2018-08-17T08:17:40.796Z,56.64
2018-08-17T08:20:21.224Z,56.57
2018-08-17T08:23:28.872Z,56.95
2018-08-17T08:25:59.453Z,56.27
2018-08-17T08:28:29.797Z,55.60
2018-08-17T08:30:59.761Z,55.13
2018-08-17T08:33:29.528Z,54.69
2018-08-17T08:35:59.466Z,53.97
2018-08-17T08:38:29.453Z,54.64
2018-08-17T08:40:59.238Z,53.83
2018-08-17T08:43:29.017Z,53.92
2018-08-17T08:45:59.109Z,53.94
2018-08-17T08:48:29.151Z,52.83
2018-08-17T08:50:59.194Z,52.06
2018-08-17T08:53:28.991Z,52.74
2018-08-17T08:55:59.213Z,52.57
2018-08-17T08:58:30.086Z,51.08
2018-08-17T09:01:01.101Z,50.58
2018-08-17T09:03:30.966Z,51.10
2018-08-17T09:06:00.978Z,50.99
2018-08-17T09:08:31.041Z,50.85
2018-08-17T09:11:01.036Z,48.87
2018-08-17T09:13:31.007Z,48.55
2018-08-17T09:16:01.044Z,47.78
2018-08-17T09:18:31.248Z,47.98
2018-08-17T09:21:01.264Z,47.77
2018-08-17T09:23:31.124Z,48.22
2018-08-17T09:26:01.076Z,47.12
2018-08-17T09:28:31.122Z,44.42
2018-08-17T09:31:01.068Z,44.31
2018-08-17T09:33:31.354Z,45.41
2018-08-17T09:36:01.196Z,43.82
2018-08-17T09:38:31.479Z,43.84
2018-08-17T09:41:01.300Z,44.97
2018-08-17T09:43:31.081Z,44.33
2018-08-17T09:46:01.024Z,44.48
2018-08-17T09:48:31.103Z,42.95
2018-08-17T09:51:01.622Z,41.87
2018-08-17T09:53:31.452Z,41.19
2018-08-17T09:56:01.837Z,41.91
2018-08-17T09:58:31.989Z,41.45
2018-08-17T10:01:07.000Z,40.94
2018-08-17T10:03:42.231Z,40.87
2018-08-17T10:06:17.281Z,40.64
2018-08-17T10:08:52.076Z,40.88
2018-08-17T10:11:22.021Z,39.71
2018-08-17T10:13:52.005Z,39.33
2018-08-17T10:16:22.229Z,39.39
2018-08-17T10:18:52.517Z,38.71
2018-08-17T10:21:22.456Z,38.33
2018-08-17T10:23:52.325Z,37.92
2018-08-17T10:26:22.282Z,36.75
2018-08-17T10:28:52.105Z,36.63
2018-08-17T10:31:22.385Z,37.62
2018-08-17T10:33:52.634Z,36.28
2018-08-17T10:36:22.479Z,36.05
2018-08-17T10:38:52.317Z,34.85
2018-08-17T10:41:22.364Z,35.06
2018-08-17T10:43:52.811Z,34.48
2018-08-17T10:46:22.912Z,34.40
2018-08-17T10:48:53.384Z,33.74
2018-08-17T10:51:23.805Z,33.19
2018-08-17T10:53:53.813Z,32.19
2018-08-17T10:56:23.966Z,33.55
2018-08-17T10:58:53.845Z,33.01
2018-08-17T11:01:23.798Z,32.48
2018-08-17T11:03:53.777Z,31.43
2018-08-17T11:06:23.696Z,30.99
2018-08-17T11:08:53.559Z,30.64
2018-08-17T11:11:23.326Z,30.85
2018-08-17T11:13:54.197Z,29.63
2018-08-17T11:16:24.117Z,29.25
2018-08-17T11:18:54.593Z,28.83
2018-08-17T11:21:24.927Z,28.74
2018-08-17T11:24:02.870Z,28.35
2018-08-17T11:26:39.192Z,28.21
2018-08-17T11:29:09.466Z,27.93
2018-08-17T11:31:39.650Z,28.02
2018-08-17T11:34:10.249Z,28.63
2018-08-17T11:36:40.036Z,28.57
2018-08-17T11:39:10.362Z,28.20
2018-08-17T11:41:40.641Z,27.08
2018-08-17T11:44:14.360Z,27.83
2018-08-17T11:46:44.647Z,28.73
2018-08-17T11:49:14.746Z,28.85
2018-08-17T11:51:45.021Z,28.29
2018-08-17T11:54:14.925Z,28.34
2018-08-17T11:56:45.447Z,27.10
2018-08-17T11:59:15.467Z,27.78
2018-08-17T12:01:45.485Z,26.97
2018-08-17T12:04:15.455Z,27.61
2018-08-17T12:06:45.529Z,26.82
2018-08-17T12:09:15.389Z,26.75
2018-08-17T12:11:45.323Z,26.81
2018-08-17T12:14:15.323Z,27.10
2018-08-17T12:16:45.981Z,26.40
2018-08-17T12:19:16.371Z,26.55
2018-08-17T12:21:46.290Z,26.55
2018-08-17T12:24:16.355Z,25.65
2018-08-17T12:26:51.450Z,25.63
2018-08-17T12:29:21.404Z,25.34
2018-08-17T12:31:51.370Z,25.03
2018-08-17T12:34:21.320Z,25.22
2018-08-17T12:36:51.275Z,25.37
2018-08-17T12:39:21.902Z,24.74
2018-08-17T12:41:51.739Z,24.50
2018-08-17T12:44:22.158Z,24.49
2018-08-17T12:46:52.991Z,24.35
2018-08-17T12:49:23.781Z,24.39
2018-08-17T12:51:54.893Z,24.57
2018-08-17T12:54:30.493Z,24.36
2018-08-17T12:57:02.149Z,24.55
2018-08-17T12:59:32.522Z,24.25
2018-08-17T13:02:02.922Z,24.18
2018-08-17T13:04:32.943Z,24.25
2018-08-17T13:07:02.781Z,23.64
2018-08-17T13:09:32.613Z,23.65
2018-08-17T13:12:03.047Z,23.65
2018-08-17T13:14:33.031Z,23.19
2018-08-17T13:17:03.828Z,23.37
2018-08-17T13:19:34.934Z,23.25
2018-08-17T13:22:05.902Z,23.37
2018-08-17T13:24:37.053Z,23.15
2018-08-17T13:27:07.859Z,22.62
2018-08-17T13:29:38.998Z,22.37
2018-08-17T13:32:09.677Z,22.75
2018-08-17T13:34:39.719Z,21.75
2018-08-17T13:37:10.745Z,22.25
2018-08-17T13:39:42.420Z,21.86
2018-08-17T13:42:13.251Z,22.09
2018-08-17T13:44:44.147Z,21.96
2018-08-17T13:47:14.988Z,21.26
2018-08-17T13:49:46.085Z,21.13
2018-08-17T13:52:16.968Z,20.80
2018-08-17T13:54:48.399Z,20.96
2018-08-17T13:57:18.952Z,21.38
2018-08-17T13:59:50.161Z,21.22
2018-08-17T14:02:21.426Z,21.68
2018-08-17T14:04:52.198Z,21.32
2018-08-17T14:07:23.113Z,21.79
2018-08-17T14:09:54.288Z,21.82
2018-08-17T14:12:25.123Z,21.89
2018-08-17T14:14:56.150Z,21.42
2018-08-17T14:17:27.143Z,21.43
2018-08-17T14:19:58.078Z,20.79
2018-08-17T14:22:28.880Z,21.42
2018-08-17T14:24:59.896Z,20.92
2018-08-17T14:27:30.783Z,20.44
2018-08-17T14:30:01.877Z,20.60
2018-08-17T14:32:32.846Z,20.70
2018-08-17T14:35:03.848Z,20.44
2018-08-17T14:37:34.875Z,20.81
2018-08-17T14:40:06.522Z,20.72
2018-08-17T14:42:37.160Z,21.43
2018-08-17T14:45:09.210Z,21.05
2018-08-17T14:47:39.878Z,21.57
2018-08-17T14:50:13.585Z,21.10
2018-08-17T14:52:44.110Z,21.36
2018-08-17T14:55:14.076Z,21.01
2018-08-17T14:57:43.982Z,21.13
2018-08-17T15:00:15.279Z,20.29
2018-08-17T15:02:45.377Z,20.37
2018-08-17T15:05:16.689Z,20.65
2018-08-17T15:07:46.753Z,21.04
2018-08-17T15:10:17.686Z,20.80
2018-08-17T15:12:49.261Z,21.17
2018-08-17T15:15:21.762Z,21.19
2018-08-17T15:17:51.614Z,20.90
2018-08-17T15:20:21.976Z,21.13
2018-08-17T15:22:52.769Z,21.39
2018-08-17T15:25:24.137Z,21.05
2018-08-17T15:27:54.977Z,21.06
2018-08-17T15:30:25.689Z,21.35
2018-08-17T15:32:57.206Z,21.28
2018-08-17T15:35:27.947Z,21.51
2018-08-17T15:37:58.765Z,21.88
2018-08-17T15:40:29.932Z,21.94
2018-08-17T15:43:04.706Z,21.96
2018-08-17T15:45:34.417Z,21.49
2018-08-17T15:48:04.709Z,20.97
2018-08-17T15:50:34.545Z,20.76
2018-08-17T15:53:05.082Z,21.44
2018-08-17T15:55:35.926Z,21.80
2018-08-17T15:58:07.423Z,21.42
2018-08-17T16:00:38.561Z,21.23
2018-08-17T16:03:09.175Z,22.02
2018-08-17T16:05:40.435Z,21.99
2018-08-17T16:08:10.896Z,21.57
2018-08-17T16:10:41.882Z,21.54
2018-08-17T16:13:12.850Z,21.88
2018-08-17T16:15:43.796Z,22.08
2018-08-17T16:18:14.882Z,22.61
2018-08-17T16:20:45.835Z,22.39
2018-08-17T16:23:16.633Z,22.46
2018-08-17T16:25:48.321Z,22.65
2018-08-17T16:28:18.906Z,22.17
2018-08-17T16:30:49.834Z,22.76
2018-08-17T16:33:20.790Z,22.81
2018-08-17T16:35:51.961Z,22.95
2018-08-17T16:38:22.749Z,22.76
2018-08-17T16:40:54.409Z,23.30
2018-08-17T16:43:30.999Z,22.61
2018-08-17T16:46:01.427Z,22.62
2018-08-17T16:48:31.314Z,23.17
2018-08-17T16:51:01.663Z,23.11
2018-08-17T16:53:31.507Z,23.36
2018-08-17T16:56:05.548Z,23.77
2018-08-17T16:58:35.848Z,23.47
2018-08-17T17:01:05.738Z,24.20
2018-08-17T17:03:35.629Z,24.54
2018-08-17T17:06:06.271Z,24.64
2018-08-17T17:08:36.752Z,25.29
2018-08-17T17:11:06.718Z,24.50
2018-08-17T17:13:41.855Z,25.28
2018-08-17T17:16:12.040Z,24.74
2018-08-17T17:18:41.883Z,25.11
2018-08-17T17:21:11.749Z,25.14
2018-08-17T17:23:52.385Z,25.43
2018-08-17T17:26:22.612Z,25.83
2018-08-17T17:28:52.454Z,26.01
2018-08-17T17:31:22.267Z,26.56
2018-08-17T17:33:52.919Z,26.62
2018-08-17T17:36:22.678Z,27.35
2018-08-17T17:38:52.477Z,27.29
2018-08-17T17:41:22.790Z,27.88
2018-08-17T17:43:52.573Z,28.15
2018-08-17T17:46:22.928Z,28.32
2018-08-17T17:48:52.766Z,29.07
2018-08-17T17:51:22.660Z,28.74
2018-08-17T17:53:52.882Z,29.05
2018-08-17T17:56:24.015Z,29.67
2018-08-17T17:59:03.120Z,30.58
2018-08-17T18:01:33.217Z,30.35
2018-08-17T18:04:03.503Z,31.36
2018-08-17T18:06:33.626Z,31.55
2018-08-17T18:09:03.768Z,31.44
2018-08-17T18:11:33.656Z,32.32
2018-08-17T18:14:03.524Z,32.53
2018-08-17T18:16:33.950Z,32.76
2018-08-17T18:19:04.013Z,32.82
2018-08-17T18:21:34.685Z,34.17
2018-08-17T18:24:09.374Z,34.37
2018-08-17T18:26:41.929Z,35.24
2018-08-17T18:29:11.835Z,34.98
2018-08-17T18:31:41.803Z,35.97
2018-08-17T18:34:11.933Z,36.25
2018-08-17T18:36:42.065Z,35.87
2018-08-17T18:39:14.111Z,36.55
2018-08-17T18:41:44.404Z,36.95
2018-08-17T18:44:14.688Z,36.92
2018-08-17T18:46:44.677Z,37.92
2018-08-17T18:49:14.694Z,37.32
2018-08-17T18:51:44.836Z,38.04
2018-08-17T18:54:15.920Z,38.05
2018-08-17T18:56:46.847Z,38.59
2018-08-17T18:59:17.783Z,38.31
2018-08-17T19:01:49.310Z,38.64
2018-08-17T19:04:20.273Z,39.17
2018-08-17T19:06:51.156Z,39.49
2018-08-17T19:09:21.985Z,39.38
2018-08-17T19:11:52.880Z,40.33
2018-08-17T19:14:23.886Z,40.53
2018-08-17T19:16:55.142Z,40.67
2018-08-17T19:19:25.997Z,40.97
2018-08-17T19:21:57.608Z,41.76
2018-08-17T19:24:28.367Z,41.10
2018-08-17T19:26:59.115Z,41.06
2018-08-17T19:29:30.455Z,41.66
2018-08-17T19:32:03.068Z,41.36
2018-08-17T19:34:33.204Z,41.88
2018-08-17T19:37:03.220Z,41.37
2018-08-17T19:39:35.086Z,41.61
2018-08-17T19:42:05.468Z,41.79
2018-08-17T19:44:35.529Z,42.36
2018-08-17T19:47:06.332Z,42.07
2018-08-17T19:49:37.413Z,42.51
2018-08-17T19:52:08.791Z,42.55
2018-08-17T19:54:39.728Z,43.00
2018-08-17T19:57:09.616Z,43.12
2018-08-17T19:59:41.301Z,43.51
2018-08-17T20:02:12.025Z,43.70
2018-08-17T20:04:42.875Z,43.45
2018-08-17T20:07:13.944Z,44.10
2018-08-17T20:09:45.062Z,43.98
2018-08-17T20:12:16.284Z,44.16
2018-08-17T20:14:47.186Z,44.35
2018-08-17T20:17:18.054Z,44.12
2018-08-17T20:19:50.041Z,44.31
2018-08-17T20:22:22.872Z,44.12
2018-08-17T20:24:53.048Z,44.19
2018-08-17T20:27:23.368Z,44.59
2018-08-17T20:29:53.262Z,44.44
2018-08-17T20:32:24.042Z,45.03
2018-08-17T20:34:55.135Z,45.20
2018-08-17T20:37:25.982Z,44.86
2018-08-17T20:39:57.019Z,45.63
2018-08-17T20:42:28.403Z,45.05
2018-08-17T20:44:59.033Z,45.45
2018-08-17T20:47:30.042Z,45.32
2018-08-17T20:50:00.978Z,45.78
2018-08-17T20:52:31.839Z,45.66
2018-08-17T20:55:03.707Z,45.57
2018-08-17T20:57:33.950Z,45.77
2018-08-17T21:00:05.494Z,46.12
2018-08-17T21:02:36.069Z,46.27
2018-08-17T21:05:07.539Z,46.36
2018-08-17T21:07:38.100Z,47.01
2018-08-17T21:10:09.437Z,46.69
2018-08-17T21:12:40.256Z,46.80
2018-08-17T21:15:10.988Z,47.25
2018-08-17T21:17:41.916Z,47.06
2018-08-17T21:20:13.036Z,47.40
2018-08-17T21:22:43.955Z,47.65
2018-08-17T21:25:14.931Z,47.84
2018-08-17T21:27:45.982Z,47.33
2018-08-17T21:30:17.128Z,47.35
2018-08-17T21:32:48.080Z,47.91
2018-08-17T21:35:19.174Z,48.29
2018-08-17T21:37:50.604Z,48.10
2018-08-17T21:40:30.391Z,48.00
2018-08-17T21:43:02.487Z,48.32
2018-08-17T21:45:33.238Z,47.97
2018-08-17T21:48:03.597Z,48.84
2018-08-17T21:50:33.605Z,48.44
2018-08-17T21:53:03.513Z,48.64
2018-08-17T21:55:33.621Z,48.89
2018-08-17T21:58:04.108Z,49.59
2018-08-17T22:00:34.652Z,49.67
2018-08-17T22:03:11.319Z,49.73
2018-08-17T22:05:41.882Z,49.87
2018-08-17T22:08:11.946Z,49.93
2018-08-17T22:10:41.796Z,49.77
2018-08-17T22:13:21.697Z,49.72
2018-08-17T22:15:52.204Z,49.71
2018-08-17T22:18:22.240Z,49.15
2018-08-17T22:20:53.276Z,49.25
2018-08-17T22:23:23.514Z,49.67
2018-08-17T22:25:53.858Z,49.97
2018-08-17T22:28:23.777Z,50.08
2018-08-17T22:30:53.996Z,50.52
2018-08-17T22:33:24.329Z,51.28
2018-08-17T22:35:54.545Z,51.45
2018-08-17T22:38:27.735Z,51.96
2018-08-17T22:40:58.096Z,52.04
2018-08-17T22:43:42.374Z,51.98
2018-08-17T22:46:12.189Z,53.04
2018-08-17T22:48:42.025Z,53.44
2018-08-17T22:51:12.119Z,54.00
2018-08-17T22:53:41.999Z,53.87
2018-08-17T22:56:12.097Z,55.39
2018-08-17T22:58:51.457Z,55.34
2018-08-17T23:01:21.761Z,55.75
2018-08-17T23:03:55.488Z,55.89
2018-08-17T23:06:26.868Z,55.78
2018-08-17T23:09:00.039Z,56.32
2018-08-17T23:11:36.519Z,56.07
2018-08-17T23:14:21.333Z,56.64
2018-08-17T23:16:51.496Z,56.43
2018-08-17T23:19:21.309Z,56.72
2018-08-17T23:21:51.113Z,56.44
2018-08-17T23:24:21.118Z,56.72
2018-08-17T23:26:51.072Z,56.86
2018-08-17T23:29:21.303Z,56.63
2018-08-17T23:31:51.112Z,56.93
2018-08-17T23:34:21.069Z,57.21
2018-08-17T23:36:51.198Z,57.57
2018-08-17T23:39:21.507Z,57.75
2018-08-17T23:41:51.496Z,57.28
2018-08-17T23:44:21.306Z,57.03
2018-08-17T23:46:51.255Z,57.39
2018-08-17T23:49:21.267Z,58.40
2018-08-17T23:51:51.091Z,58.19
2018-08-17T23:54:21.081Z,57.58
2018-08-17T23:56:51.481Z,57.82
2018-08-17T23:59:21.320Z,57.51
